Terminal Aerodrome Forecast
Issued by NWS Duluth, MN

Home | Current Version | Previous Version | Text Only | Print | Product List | Glossary On
Versions: 1 2 3 4 5 6 7 8 9 10 11 12 13 14 15 16 17 18 19
369
FTUS43 KDLH 280226 AAB
TAFINL
TAF AMD
KINL 280226Z 2802/2824 20003KT P6SM VCSH SCT040 BKN100
      TEMPO 2802/2804 6SM -TSRA BR BKN040CB
     FM280400 14003KT 5SM BR SCT015 BKN100
     FM280800 VRB02KT 3SM BR SCT010
      TEMPO 2809/2812 1 1/2SM BR BKN010
     FM281400 15007KT P6SM SCT020
     FM281900 15007KT P6SM BKN040=

USA.gov is the U.S. government's official web portal to all federal, state and local government web resources and services.